Terminal Aerodrome Forecast
Issued by NWS Wilmington, OH

Current Version | Previous Version | Graphics & Text | Print | Product List | Glossary On
Versions: 1 2 3 4 5 6 7 8 9 10 11 12 13 14 15 16 17 18 19 20 21 22 23
008
FTUS41 KILN 271133 AAB
TAFCVG
TAF AMD
KCVG 271133Z 2712/2812 19007KT P6SM -SHRA OVC040
     FM271400 17007KT P6SM VCSH OVC025
     FM272200 16006KT P6SM OVC035
     FM281000 14005KT P6SM OVC025=

USA.gov is the U.S. government's official web portal to all federal, state and local government web resources and services.